»·PEaware :: DAL189 KPDX-KSMF

DAL189 :: KPDX-KSMF

FLIGHT INFORMATION

Flight Status: Arrived
Operator:
Delta Air Lines
More flights by this operator :: More flights under this callsign
Pilot: Patricio R. (14780)
Aircraft: AIRBUS A320
(A320)
More flights by this aircraft type
Origin: KPDX Portland Intl
United States
Destination: KSMF Sacramento Intl
United States
More flights between these airports :: More routes between these airports
Route: HRMNS5 HRMNS J189 LMT TUDOR2
File this flight plan on PilotEdge
Remarks:
Altitude:
(Current/Filed)
35,000ft
Speed:
(Current/Filed)
455kts
Departed: 28-Jul-18 01:23 PM
Arrived: 28-Jul-18 02:36 PM
Distance/Time
Traveled:
416nm/1:13
Distance/Time
To Go:
Arrived

Flight Plot

Page will automatically refresh every two minutes.

Flight plan parsing failed; only flown route is shown


Map Options




Map Legend


Flown Route
Filed Route
Departure Airport
Arrival Airport
Navaid (VOR, NDB)
Fix

Horizontal Profiles

Position Reports

Time Latitude Longitude Heading Altitude Ground
Speed
28-Jul-18 13:03 45.591133 -122.594086 208 38ft 0kts
28-Jul-18 13:04 45.591133 -122.594086 208 38ft 0kts
28-Jul-18 13:05 45.591133 -122.594086 208 38ft 0kts
28-Jul-18 13:06 45.591133 -122.594086 208 38ft 0kts
28-Jul-18 13:07 45.591133 -122.594086 208 38ft 0kts
28-Jul-18 13:08 45.591133 -122.594086 208 38ft 0kts
28-Jul-18 13:09 45.591133 -122.594086 208 38ft 0kts
28-Jul-18 13:10 45.591133 -122.594086 208 38ft 0kts
28-Jul-18 13:11 45.591133 -122.594086 208 38ft 0kts
28-Jul-18 13:12 45.591133 -122.594086 208 38ft 0kts
28-Jul-18 13:13 45.591133 -122.594086 208 38ft 0kts
28-Jul-18 13:14 45.591133 -122.594086 208 38ft 0kts
28-Jul-18 13:15 45.591134 -122.594086 208 38ft 0kts
28-Jul-18 13:16 45.591134 -122.594086 208 38ft 0kts
28-Jul-18 13:17 45.591509 -122.593795 208 38ft 2kts
28-Jul-18 13:18 45.591968 -122.593695 124 38ft 0kts
28-Jul-18 13:19 45.592000 -122.593785 119 38ft 0kts
28-Jul-18 13:20 45.590918 -122.591057 119 38ft 20kts
28-Jul-18 13:21 45.589559 -122.585498 107 38ft 16kts
28-Jul-18 13:22 45.586853 -122.578456 119 38ft 22kts
28-Jul-18 13:23 45.583620 -122.570184 119 38ft 25kts
28-Jul-18 13:24 45.587179 -122.576053 299 38ft 134kts
28-Jul-18 13:25 45.612001 -122.640812 290 2785ft 219kts
28-Jul-18 13:26 45.640414 -122.728632 300 5649ft 275kts
28-Jul-18 13:27 45.670606 -122.828420 261 8860ft 289kts
28-Jul-18 13:28 45.628571 -122.920404 195 12174ft 303kts
28-Jul-18 13:29 45.539295 -122.891370 154 13988ft 358kts
28-Jul-18 13:30 45.452656 -122.817057 149 16554ft 371kts
28-Jul-18 13:31 45.362947 -122.740219 150 18816ft 384kts
28-Jul-18 13:32 45.270323 -122.661323 150 20833ft 396kts
28-Jul-18 13:33 45.174825 -122.580308 151 22646ft 407kts
28-Jul-18 13:34 45.077542 -122.498105 152 24240ft 419kts
28-Jul-18 13:35 44.976605 -122.413202 154 25506ft 435kts
28-Jul-18 13:36 44.863896 -122.369191 175 26825ft 430kts
28-Jul-18 13:37 44.753029 -122.300302 158 28098ft 453kts
28-Jul-18 13:38 44.637431 -122.231894 166 29251ft 455kts
28-Jul-18 13:39 44.518304 -122.169585 166 30304ft 462kts
28-Jul-18 13:40 44.404304 -122.110823 167 31336ft 465kts
28-Jul-18 13:41 44.283446 -122.048839 167 32572ft 463kts
28-Jul-18 13:42 44.163448 -121.987603 167 33719ft 460kts
28-Jul-18 13:43 44.043602 -121.926713 167 34793ft 458kts
28-Jul-18 13:44 43.924800 -121.866612 167 35208ft 455kts
28-Jul-18 13:45 43.807036 -121.807313 167 35211ft 456kts
28-Jul-18 13:46 43.688130 -121.747887 170 35210ft 454kts
28-Jul-18 13:47 43.567382 -121.734555 187 35216ft 435kts
28-Jul-18 13:48 43.446594 -121.733892 187 35204ft 434kts
28-Jul-18 13:49 43.326467 -121.733276 187 35202ft 434kts
28-Jul-18 13:50 43.206361 -121.732674 187 35218ft 434kts
28-Jul-18 13:51 43.087261 -121.732082 187 35258ft 434kts
28-Jul-18 13:52 42.969048 -121.731491 186 35293ft 432kts
28-Jul-18 13:53 42.853986 -121.730902 186 35322ft 427kts
28-Jul-18 13:54 42.738561 -121.730345 186 35274ft 423kts
28-Jul-18 13:55 42.623126 -121.729796 186 35237ft 421kts
28-Jul-18 13:56 42.508856 -121.729245 186 35239ft 421kts
28-Jul-18 13:57 42.392629 -121.728686 186 35257ft 422kts
28-Jul-18 13:58 42.288128 -121.728182 186 35271ft 422kts
28-Jul-18 13:59 42.172487 -121.727623 186 35283ft 423kts
28-Jul-18 14:00 42.057348 -121.727065 186 35272ft 423kts
28-Jul-18 14:01 41.941511 -121.726517 186 35270ft 423kts
28-Jul-18 14:02 41.825679 -121.725968 186 35271ft 424kts
28-Jul-18 14:03 41.708443 -121.725407 186 35272ft 424kts
28-Jul-18 14:04 41.591299 -121.724848 186 35258ft 424kts
28-Jul-18 14:05 41.474051 -121.724295 186 35251ft 423kts
28-Jul-18 14:06 41.356658 -121.723742 186 35249ft 423kts
28-Jul-18 14:07 41.239821 -121.723197 186 35197ft 424kts
28-Jul-18 14:08 41.122518 -121.722647 186 35006ft 423kts
28-Jul-18 14:09 41.006032 -121.722100 186 35019ft 421kts
28-Jul-18 14:10 40.893466 -121.721570 186 35030ft 418kts
28-Jul-18 14:11 40.779458 -121.721051 186 34917ft 417kts
28-Jul-18 14:12 40.665351 -121.720505 186 33384ft 414kts
28-Jul-18 14:13 40.551076 -121.719977 185 31080ft 410kts
28-Jul-18 14:14 40.439887 -121.719102 183 29199ft 397kts
28-Jul-18 14:15 40.331634 -121.710186 181 27342ft 385kts
28-Jul-18 14:16 40.226975 -121.701163 181 25490ft 374kts
28-Jul-18 14:17 40.124420 -121.692366 180 23638ft 366kts
28-Jul-18 14:18 40.024533 -121.683812 180 21802ft 358kts
28-Jul-18 14:19 39.926577 -121.675450 179 19981ft 351kts
28-Jul-18 14:20 39.833769 -121.667544 179 18234ft 344kts
28-Jul-18 14:21 39.740089 -121.659585 178 16464ft 337kts
28-Jul-18 14:22 39.647668 -121.651755 178 14701ft 330kts
28-Jul-18 14:23 39.557340 -121.644123 177 12976ft 323kts
28-Jul-18 14:24 39.468221 -121.636620 176 11151ft 323kts
28-Jul-18 14:25 39.381692 -121.629313 176 10180ft 293kts
28-Jul-18 14:26 39.302928 -121.622692 176 9276ft 282kts
28-Jul-18 14:27 39.227689 -121.616435 176 8264ft 280kts
28-Jul-18 14:28 39.150290 -121.610016 176 7227ft 277kts
28-Jul-18 14:29 39.076520 -121.603877 176 6464ft 263kts
28-Jul-18 14:30 39.004328 -121.597914 176 5318ft 257kts
28-Jul-18 14:31 38.932945 -121.586971 172 4193ft 249kts
28-Jul-18 14:32 38.871176 -121.577080 182 3150ft 217kts
28-Jul-18 14:33 38.816902 -121.578150 181 2122ft 167kts
28-Jul-18 14:34 38.775500 -121.578882 180 1288ft 145kts
28-Jul-18 14:35 38.735528 -121.579580 181 561ft 143kts
28-Jul-18 14:36 38.696760 -121.580239 180 29ft 97kts
28-Jul-18 14:37 38.690718 -121.581819 210 27ft 0kts
28-Jul-18 14:38 38.690274 -121.582440 260 28ft 8kts
28-Jul-18 14:39 38.691996 -121.584860 317 29ft 8kts
28-Jul-18 14:40 38.692942 -121.585968 281 29ft 0kts

Navigation Log

Ident Type
Flight plan parsing failed, navigation log unavailable